Aviation Digital Data Service (ADDS)

Output produced by METARs form (1408 UTC 23 January 2019)
found at http://www.aviationweather.gov/metar/data/
 
Forecast for: EBBE (BEAUVECHAIN (BAF, BE)
Text: TAF EBBE 231141Z 2313/2322 04005KT 9000 BKN025
Forecast period: 1300 to 2200 UTC 23 January 2019
Forecast type: FROM: standard forecast or significant change
Winds: from the NE (40 degrees) at 6 MPH (5 knots; 2.6 m/s)
Visibility: 6 miles (9 km)
Ceiling: 2500 feet AGL
Clouds: broken clouds at 2500 feet AGL
Weather: no significant weather forecast for this period
Text: TEMPO 2313/2322 BKN020
Forecast period: 1300 to 2200 UTC 23 January 2019
Forecast type: TEMPORARY: The following changes expected for less than half the time period
Visibility: missing
Ceiling: 2000 feet AGL
Clouds: broken clouds at 2000 feet AGL
Weather: no significant weather forecast for this period